ADDS METAR Data INFO
IDs: Format: Raw Decoded Include TAF

Data at: 2257 UTC 22 Jun 2018

KCRQ 222253Z 25008KT 10SM CLR 20/16 A2982 RMK AO2 SLP095 T02000161
KCRQ 222153Z 30006KT 10SM CLR 21/16 A2983 RMK AO2 SLP100 T02060161
KCRQ 222053Z 27007KT 10SM CLR 22/17 A2985 RMK AO2 SLP104 T02170167 58017
KCRQ 221953Z 26006KT 9SM FEW012 21/17 A2986 RMK AO2 SLP110 T02060167
KCRQ 221853Z 25008KT 9SM CLR 21/16 A2989 RMK AO2 SLP117 T02060161
KCRQ 221753Z 24007KT 7SM SCT012 19/16 A2990 RMK AO2 SLP121 T01940156 10200 20167 58003
KCRQ 221653Z VRB03KT 7SM OVC012 19/16 A2990 RMK AO2 SLP123 T01890156
KCRQ 221553Z 00000KT 6SM BR OVC010 17/16 A2992 RMK AO2 SLP128 T01720156
KCRQ 221533Z 00000KT 6SM BR OVC010 17/16 A2991 RMK AO2 T01720156
KCRQ 221453Z 00000KT 4SM BR OVC009 17/16 A2991 RMK AO2 SLP125 T01720156 53005
KCRQ 221353Z AUTO 00000KT 6SM BR OVC009 17/16 A2990 RMK AO2 SLP122 T01720156
KCRQ 221253Z AUTO 00000KT 7SM OVC009 17/16 A2989 RMK AO2 SLP119 T01670156
KCRQ 221153Z AUTO 00000KT 8SM OVC009 17/16 A2989 RMK AO2 SLP120 T01670156 10172 20167 58005
KCRQ 221053Z AUTO 26004KT 8SM OVC009 17/16 A2990 RMK AO2 SLP121 T01720156
KCRQ 220953Z AUTO 00000KT 8SM OVC009 17/16 A2990 RMK AO2 SLP122 T01720156
KCRQ 220853Z AUTO 00000KT 8SM OVC009 17/16 A2991 RMK AO2 SLP124 T01670156 58009
KCRQ 220753Z AUTO 00000KT 9SM OVC009 17/16 A2992 RMK AO2 SLP127 T01670156 402060167
KCRQ 220653Z AUTO 00000KT 8SM OVC009 17/16 A2993 RMK AO2 SLP131 T01670156
KCRQ 220553Z AUTO 19003KT 9SM OVC009 17/16 A2993 RMK AO2 SLP134 T01720156 10189 20167 53007
KCRQ 220453Z 23004KT 9SM OVC009 17/16 A2993 RMK AO2 SLP133 T01720156
KCRQ 220353Z 19004KT 9SM OVC009 17/15 A2992 RMK AO2 SLP129 T01720150
KCRQ 220302Z VRB03KT 9SM OVC009 17/15 A2991 RMK AO2 T01720150
KCRQ 220253Z 24004KT 8SM OVC010 17/15 A2991 RMK AO2 SLP127 T01720150 53001
KCRQ 220153Z 25006KT 9SM OVC010 18/15 A2991 RMK AO2 SLP127 T01780150
KCRQ 220053Z 22007KT 10SM OVC011 18/16 A2990 RMK AO2 SLP124 T01830156
KCRQ 212353Z 27005KT 9SM OVC012 18/16 A2991 RMK AO2 SLP127 T01830156 10206 20183 58007
KCRQ 212253Z 26007KT 10SM OVC012 19/15 A2992 RMK AO2 SLP129 T01890150
KCRQ 212213Z 24009KT 9SM BKN013 19/16 A2993 RMK AO2 T01940156
KCRQ 212153Z 25009KT 9SM SCT013 19/16 A2993 RMK AO2 SLP132 T01940156
KCRQ 212053Z 25010KT 9SM FEW013 20/16 A2993 RMK AO2 SLP133 T02000156 58006
KCRQ 211953Z 25008KT 8SM CLR 20/16 A2994 RMK AO2 SLP136 T02000156
KCRQ 211853Z 24007KT 8SM CLR 19/16 A2995 RMK AO2 SLP138 T01940161
KCRQ 211812Z 26007KT 230V290 8SM SCT013 20/16 A2995 RMK AO2 T02000161
KCRQ 211800Z VRB04KT 8SM BKN013 19/16 A2995 RMK AO2 T01940156
KCRQ 211753Z VRB04KT 7SM SCT013 20/16 A2995 RMK AO2 SLP140 T02000161 10200 20167 50003
KCRQ 211653Z 22003KT 6SM BR OVC011 18/16 A2996 RMK AO2 SLP142 T01780156
KCRQ 211553Z 00000KT 6SM BR OVC010 17/15 A2996 RMK AO2 SLP142 T01720150
KCRQ 211453Z 23004KT 6SM BR OVC010 17/15 A2994 RMK AO2 SLP137 T01720150 53010
KCRQ 211353Z 00000KT 7SM OVC010 17/15 A2993 RMK AO2 SLP132 T01720150
KCRQ 211253Z AUTO 00000KT 8SM OVC010 17/15 A2992 RMK AO2 SLP129 T01720150
KCRQ 211153Z AUTO 00000KT 9SM OVC011 17/15 A2991 RMK AO2 SLP127 T01720150 10172 20167 56002